Nassau (NAS/MYNN)

Information

Location
Nassau, Bahamas
Local Time
18:30 / 6:30 pm
GMT Time
22:30 / 10:30 pm
Gates
Unassigned
No FAA reported delays
METAR MYNN 272200Z 02008KT 9999 FEW018 27/14 A3000
TAF MYNN 271600Z 2718/2818 05010KT 9999 SCT020
  • No charts available